Tintah, Minnesota
Current Conditions -  °F | °C
As of 9:57 AM on Wednesday 28 Jan 2015 (Local Time) from KY63 Reporting Station
Haze Haze  
Wind Chill: 20°   Ceiling: 600
Heat Index: 32°   Visibility: 4mi
Dew Point: 31°   Wind: 20mph
Humidity: 95%   Direction: 150°SSE
Pressure: 29.8"   Gusts: 24mph
Location:  46.01°N, 96.32°W
Report Text: KY63 281557Z AUTO 15017G21KT 4SM BR OVC006 00/M01 A2980 RMK AO2 T00001007
Loading
Personal Weather Stations






























Interactive Weather Map New forecast layout! Learn more

10-Day Weather Forecast

Advertisements
Track Severe Weather on mobile